South Bend, Nebraska
Current Conditions -  °F | °C
As of 4:15 AM on Saturday 22 Nov 2014 (Local Time) from KMLE Reporting Station
Haze Haze  
Wind Chill: 38°   Ceiling: 1700
Heat Index: 38°   Visibility: 4mi
Dew Point: 36°   Wind: 0mph
Humidity: 91%   Direction: NA
Pressure: 29.91"   Gusts: NA
Location:  41°N, 96.25°W
Report Text: KMLE 221015Z AUTO 00000KT 4SM BR SCT006 SCT012 OVC017 04/02 A2991 RMK AO2 T00350021
Loading
Personal Weather Stations






























Interactive Weather Map New forecast layout! Learn more

10-Day Weather Forecast

Advertisements
Track Severe Weather on mobile